sensor_id;sensor_type;location;lat;lon;timestamp;P1;durP1;ratioP1;P2;durP2;ratioP2
55537;SDS011;41383;51.418;7.286;2023-04-24T00:00:14;0.90;;;0.27;;
55537;SDS011;41383;51.418;7.286;2023-04-24T00:02:40;6.13;;;0.75;;
55537;SDS011;41383;51.418;7.286;2023-04-24T00:05:11;1.17;;;0.47;;
55537;SDS011;41383;51.418;7.286;2023-04-24T00:07:37;1.45;;;0.30;;
55537;SDS011;41383;51.418;7.286;2023-04-24T00:10:02;1.13;;;0.60;;
55537;SDS011;41383;51.418;7.286;2023-04-24T00:12:28;1.95;;;0.47;;
55537;SDS011;41383;51.418;7.286;2023-04-24T00:14:53;3.22;;;1.27;;
55537;SDS011;41383;51.418;7.286;2023-04-24T00:17:18;5.03;;;0.70;;
55537;SDS011;41383;51.418;7.286;2023-04-24T00:19:47;2.28;;;0.73;;
55537;SDS011;41383;51.418;7.286;2023-04-24T00:22:13;4.40;;;1.25;;
55537;SDS011;41383;51.418;7.286;2023-04-24T00:24:39;0.95;;;0.40;;
55537;SDS011;41383;51.418;7.286;2023-04-24T00:27:05;1.52;;;1.00;;
55537;SDS011;41383;51.418;7.286;2023-04-24T00:29:30;1.75;;;0.60;;
55537;SDS011;41383;51.418;7.286;2023-04-24T00:31:55;1.95;;;0.60;;
55537;SDS011;41383;51.418;7.286;2023-04-24T00:34:21;4.60;;;0.40;;
55537;SDS011;41383;51.418;7.286;2023-04-24T00:36:46;5.88;;;2.08;;
55537;SDS011;41383;51.418;7.286;2023-04-24T00:39:13;2.97;;;0.95;;
55537;SDS011;41383;51.418;7.286;2023-04-24T00:41:39;1.35;;;0.60;;
55537;SDS011;41383;51.418;7.286;2023-04-24T00:44:04;1.10;;;0.63;;
55537;SDS011;41383;51.418;7.286;2023-04-24T00:46:29;1.67;;;0.80;;
55537;SDS011;41383;51.418;7.286;2023-04-24T00:48:56;1.92;;;0.90;;
55537;SDS011;41383;51.418;7.286;2023-04-24T00:51:21;2.28;;;1.00;;
55537;SDS011;41383;51.418;7.286;2023-04-24T00:53:46;2.03;;;0.80;;
55537;SDS011;41383;51.418;7.286;2023-04-24T00:56:12;5.47;;;1.13;;
55537;SDS011;41383;51.418;7.286;2023-04-24T00:58:37;3.80;;;1.40;;
55537;SDS011;41383;51.418;7.286;2023-04-24T01:01:03;3.03;;;1.15;;
55537;SDS011;41383;51.418;7.286;2023-04-24T01:03:31;1.65;;;1.00;;
55537;SDS011;41383;51.418;7.286;2023-04-24T01:05:58;2.28;;;0.98;;
55537;SDS011;41383;51.418;7.286;2023-04-24T01:08:23;4.22;;;1.42;;
55537;SDS011;41383;51.418;7.286;2023-04-24T01:10:50;2.92;;;1.52;;
55537;SDS011;41383;51.418;7.286;2023-04-24T01:13:17;3.58;;;1.35;;
55537;SDS011;41383;51.418;7.286;2023-04-24T01:15:43;2.97;;;1.48;;
55537;SDS011;41383;51.418;7.286;2023-04-24T01:18:08;1.80;;;0.90;;
55537;SDS011;41383;51.418;7.286;2023-04-24T01:20:33;3.78;;;1.20;;
55537;SDS011;41383;51.418;7.286;2023-04-24T01:23:00;4.30;;;2.15;;
55537;SDS011;41383;51.418;7.286;2023-04-24T01:25:25;2.65;;;1.23;;
55537;SDS011;41383;51.418;7.286;2023-04-24T01:27:50;4.65;;;1.33;;
55537;SDS011;41383;51.418;7.286;2023-04-24T01:30:16;2.45;;;1.45;;
55537;SDS011;41383;51.418;7.286;2023-04-24T01:32:41;2.15;;;1.23;;
55537;SDS011;41383;51.418;7.286;2023-04-24T01:35:09;2.65;;;1.35;;
55537;SDS011;41383;51.418;7.286;2023-04-24T01:37:35;3.05;;;1.27;;
55537;SDS011;41383;51.418;7.286;2023-04-24T01:40:02;2.90;;;1.17;;
55537;SDS011;41383;51.418;7.286;2023-04-24T01:42:28;2.75;;;1.13;;
55537;SDS011;41383;51.418;7.286;2023-04-24T01:44:55;4.78;;;1.67;;
55537;SDS011;41383;51.418;7.286;2023-04-24T01:47:21;5.05;;;1.60;;
55537;SDS011;41383;51.418;7.286;2023-04-24T01:49:47;2.60;;;1.38;;
55537;SDS011;41383;51.418;7.286;2023-04-24T01:52:13;3.28;;;1.30;;
55537;SDS011;41383;51.418;7.286;2023-04-24T01:54:38;2.78;;;1.52;;
55537;SDS011;41383;51.418;7.286;2023-04-24T01:57:03;3.40;;;1.07;;
55537;SDS011;41383;51.418;7.286;2023-04-24T01:59:29;3.42;;;1.25;;
55537;SDS011;41383;51.418;7.286;2023-04-24T02:01:55;3.33;;;1.35;;
55537;SDS011;41383;51.418;7.286;2023-04-24T02:04:20;6.05;;;1.55;;
55537;SDS011;41383;51.418;7.286;2023-04-24T02:06:45;14.37;;;2.13;;
55537;SDS011;41383;51.418;7.286;2023-04-24T02:09:11;7.13;;;1.60;;
55537;SDS011;41383;51.418;7.286;2023-04-24T02:11:36;3.47;;;1.50;;
55537;SDS011;41383;51.418;7.286;2023-04-24T02:14:01;4.13;;;1.80;;
55537;SDS011;41383;51.418;7.286;2023-04-24T02:16:28;4.13;;;1.77;;
55537;SDS011;41383;51.418;7.286;2023-04-24T02:18:57;8.20;;;3.05;;
55537;SDS011;41383;51.418;7.286;2023-04-24T02:21:22;6.53;;;2.88;;
55537;SDS011;41383;51.418;7.286;2023-04-24T02:23:47;5.27;;;2.40;;
55537;SDS011;41383;51.418;7.286;2023-04-24T02:26:13;7.88;;;3.38;;
55537;SDS011;41383;51.418;7.286;2023-04-24T02:28:38;5.13;;;2.50;;
55537;SDS011;41383;51.418;7.286;2023-04-24T02:31:03;5.53;;;2.47;;
55537;SDS011;41383;51.418;7.286;2023-04-24T02:33:28;7.20;;;2.38;;
55537;SDS011;41383;51.418;7.286;2023-04-24T02:35:54;8.55;;;3.35;;
55537;SDS011;41383;51.418;7.286;2023-04-24T02:38:19;6.70;;;3.35;;
55537;SDS011;41383;51.418;7.286;2023-04-24T02:40:44;7.13;;;3.40;;
55537;SDS011;41383;51.418;7.286;2023-04-24T02:43:10;8.53;;;3.37;;
55537;SDS011;41383;51.418;7.286;2023-04-24T02:45:35;9.93;;;3.65;;
55537;SDS011;41383;51.418;7.286;2023-04-24T02:48:00;5.25;;;3.33;;
55537;SDS011;41383;51.418;7.286;2023-04-24T02:50:25;8.97;;;4.67;;
55537;SDS011;41383;51.418;7.286;2023-04-24T02:52:51;7.10;;;3.55;;
55537;SDS011;41383;51.418;7.286;2023-04-24T02:55:16;8.68;;;4.25;;
55537;SDS011;41383;51.418;7.286;2023-04-24T02:57:41;8.20;;;4.03;;
55537;SDS011;41383;51.418;7.286;2023-04-24T03:00:07;16.57;;;4.53;;
55537;SDS011;41383;51.418;7.286;2023-04-24T03:02:33;11.30;;;4.55;;
55537;SDS011;41383;51.418;7.286;2023-04-24T03:04:59;8.13;;;4.17;;
55537;SDS011;41383;51.418;7.286;2023-04-24T03:07:24;9.98;;;4.97;;
55537;SDS011;41383;51.418;7.286;2023-04-24T03:09:50;10.85;;;5.93;;
55537;SDS011;41383;51.418;7.286;2023-04-24T03:12:15;9.60;;;5.03;;
55537;SDS011;41383;51.418;7.286;2023-04-24T03:14:42;19.27;;;5.78;;
55537;SDS011;41383;51.418;7.286;2023-04-24T03:17:07;8.97;;;5.23;;
55537;SDS011;41383;51.418;7.286;2023-04-24T03:19:33;11.57;;;6.10;;
55537;SDS011;41383;51.418;7.286;2023-04-24T03:21:58;8.82;;;4.85;;
55537;SDS011;41383;51.418;7.286;2023-04-24T03:24:23;10.07;;;4.82;;
55537;SDS011;41383;51.418;7.286;2023-04-24T03:26:49;9.70;;;5.10;;
55537;SDS011;41383;51.418;7.286;2023-04-24T03:29:14;10.55;;;5.15;;
55537;SDS011;41383;51.418;7.286;2023-04-24T03:31:39;11.33;;;5.90;;
55537;SDS011;41383;51.418;7.286;2023-04-24T03:34:04;9.85;;;5.80;;
55537;SDS011;41383;51.418;7.286;2023-04-24T03:36:30;11.10;;;5.87;;
55537;SDS011;41383;51.418;7.286;2023-04-24T03:38:56;13.13;;;6.05;;
55537;SDS011;41383;51.418;7.286;2023-04-24T03:41:21;11.90;;;7.00;;
55537;SDS011;41383;51.418;7.286;2023-04-24T03:43:47;10.55;;;5.47;;
55537;SDS011;41383;51.418;7.286;2023-04-24T03:46:12;11.75;;;7.15;;
55537;SDS011;41383;51.418;7.286;2023-04-24T03:48:38;11.38;;;6.20;;
55537;SDS011;41383;51.418;7.286;2023-04-24T03:51:03;13.73;;;7.27;;
55537;SDS011;41383;51.418;7.286;2023-04-24T03:53:28;11.60;;;5.72;;
55537;SDS011;41383;51.418;7.286;2023-04-24T03:55:53;23.57;;;7.63;;
55537;SDS011;41383;51.418;7.286;2023-04-24T03:58:19;16.10;;;7.65;;
55537;SDS011;41383;51.418;7.286;2023-04-24T04:00:45;13.80;;;6.90;;
55537;SDS011;41383;51.418;7.286;2023-04-24T04:03:13;13.45;;;6.47;;
55537;SDS011;41383;51.418;7.286;2023-04-24T04:05:39;16.05;;;7.32;;
55537;SDS011;41383;51.418;7.286;2023-04-24T04:08:05;11.13;;;5.95;;
55537;SDS011;41383;51.418;7.286;2023-04-24T04:10:30;18.50;;;7.32;;
55537;SDS011;41383;51.418;7.286;2023-04-24T04:12:55;14.85;;;6.70;;
55537;SDS011;41383;51.418;7.286;2023-04-24T04:15:21;12.90;;;6.83;;
55537;SDS011;41383;51.418;7.286;2023-04-24T04:17:46;11.53;;;6.43;;
55537;SDS011;41383;51.418;7.286;2023-04-24T04:20:11;13.82;;;7.30;;
55537;SDS011;41383;51.418;7.286;2023-04-24T04:22:37;10.82;;;6.38;;
55537;SDS011;41383;51.418;7.286;2023-04-24T04:25:03;13.02;;;7.00;;
55537;SDS011;41383;51.418;7.286;2023-04-24T04:27:29;13.70;;;7.13;;
55537;SDS011;41383;51.418;7.286;2023-04-24T04:29:57;12.90;;;6.05;;
55537;SDS011;41383;51.418;7.286;2023-04-24T04:32:24;22.83;;;7.63;;
55537;SDS011;41383;51.418;7.286;2023-04-24T04:34:49;13.90;;;7.82;;
55537;SDS011;41383;51.418;7.286;2023-04-24T04:37:18;16.92;;;7.18;;
55537;SDS011;41383;51.418;7.286;2023-04-24T04:39:43;13.05;;;6.97;;
55537;SDS011;41383;51.418;7.286;2023-04-24T04:42:08;14.98;;;5.97;;
55537;SDS011;41383;51.418;7.286;2023-04-24T04:44:34;16.13;;;7.40;;
55537;SDS011;41383;51.418;7.286;2023-04-24T04:47:00;15.70;;;8.75;;
55537;SDS011;41383;51.418;7.286;2023-04-24T04:49:28;14.38;;;9.30;;
55537;SDS011;41383;51.418;7.286;2023-04-24T04:51:54;19.85;;;8.30;;
55537;SDS011;41383;51.418;7.286;2023-04-24T04:54:19;13.30;;;7.10;;
55537;SDS011;41383;51.418;7.286;2023-04-24T04:56:44;11.27;;;6.28;;
55537;SDS011;41383;51.418;7.286;2023-04-24T04:59:10;13.38;;;8.50;;
55537;SDS011;41383;51.418;7.286;2023-04-24T05:01:35;16.00;;;8.10;;
55537;SDS011;41383;51.418;7.286;2023-04-24T05:04:01;15.25;;;8.15;;
55537;SDS011;41383;51.418;7.286;2023-04-24T05:06:27;13.95;;;7.55;;
55537;SDS011;41383;51.418;7.286;2023-04-24T05:08:52;13.63;;;8.10;;
55537;SDS011;41383;51.418;7.286;2023-04-24T05:11:21;12.80;;;7.50;;
55537;SDS011;41383;51.418;7.286;2023-04-24T05:13:47;14.35;;;8.18;;
55537;SDS011;41383;51.418;7.286;2023-04-24T05:16:12;14.33;;;7.63;;
55537;SDS011;41383;51.418;7.286;2023-04-24T05:18:37;12.38;;;6.00;;
55537;SDS011;41383;51.418;7.286;2023-04-24T05:21:03;13.73;;;7.77;;
55537;SDS011;41383;51.418;7.286;2023-04-24T05:23:28;15.75;;;6.75;;
55537;SDS011;41383;51.418;7.286;2023-04-24T05:25:53;13.30;;;7.65;;
55537;SDS011;41383;51.418;7.286;2023-04-24T05:28:19;15.35;;;7.60;;
55537;SDS011;41383;51.418;7.286;2023-04-24T05:30:45;13.65;;;6.10;;
55537;SDS011;41383;51.418;7.286;2023-04-24T05:33:11;11.13;;;5.90;;
55537;SDS011;41383;51.418;7.286;2023-04-24T05:35:36;15.25;;;7.97;;
55537;SDS011;41383;51.418;7.286;2023-04-24T05:38:01;13.73;;;7.13;;
55537;SDS011;41383;51.418;7.286;2023-04-24T05:40:26;18.80;;;7.53;;
55537;SDS011;41383;51.418;7.286;2023-04-24T05:42:52;12.25;;;5.80;;
55537;SDS011;41383;51.418;7.286;2023-04-24T05:45:17;14.55;;;7.35;;
55537;SDS011;41383;51.418;7.286;2023-04-24T05:47:43;12.30;;;6.28;;
55537;SDS011;41383;51.418;7.286;2023-04-24T05:50:09;13.73;;;8.07;;
55537;SDS011;41383;51.418;7.286;2023-04-24T05:52:35;17.88;;;8.20;;
55537;SDS011;41383;51.418;7.286;2023-04-24T05:55:00;15.43;;;7.33;;
55537;SDS011;41383;51.418;7.286;2023-04-24T05:57:25;11.85;;;7.03;;
55537;SDS011;41383;51.418;7.286;2023-04-24T05:59:51;12.82;;;7.07;;
55537;SDS011;41383;51.418;7.286;2023-04-24T06:02:16;11.23;;;5.68;;
55537;SDS011;41383;51.418;7.286;2023-04-24T06:04:42;13.65;;;7.28;;
55537;SDS011;41383;51.418;7.286;2023-04-24T06:07:07;10.55;;;5.68;;
55537;SDS011;41383;51.418;7.286;2023-04-24T06:09:32;15.27;;;6.43;;
55537;SDS011;41383;51.418;7.286;2023-04-24T06:11:58;12.93;;;7.05;;
55537;SDS011;41383;51.418;7.286;2023-04-24T06:14:24;12.63;;;6.63;;
55537;SDS011;41383;51.418;7.286;2023-04-24T06:16:50;13.00;;;5.18;;
55537;SDS011;41383;51.418;7.286;2023-04-24T06:19:15;11.85;;;5.95;;
55537;SDS011;41383;51.418;7.286;2023-04-24T06:21:41;14.67;;;5.70;;
55537;SDS011;41383;51.418;7.286;2023-04-24T06:24:06;8.23;;;4.50;;
55537;SDS011;41383;51.418;7.286;2023-04-24T06:26:31;12.00;;;5.82;;
55537;SDS011;41383;51.418;7.286;2023-04-24T06:28:57;10.20;;;5.72;;
55537;SDS011;41383;51.418;7.286;2023-04-24T06:31:24;10.43;;;5.10;;
55537;SDS011;41383;51.418;7.286;2023-04-24T06:33:49;11.32;;;4.50;;
55537;SDS011;41383;51.418;7.286;2023-04-24T06:36:14;10.05;;;5.53;;
55537;SDS011;41383;51.418;7.286;2023-04-24T06:38:40;10.52;;;4.93;;
55537;SDS011;41383;51.418;7.286;2023-04-24T06:41:06;8.38;;;5.60;;
55537;SDS011;41383;51.418;7.286;2023-04-24T06:43:31;7.53;;;4.18;;
55537;SDS011;41383;51.418;7.286;2023-04-24T06:45:57;10.77;;;5.95;;
55537;SDS011;41383;51.418;7.286;2023-04-24T06:48:23;10.27;;;5.45;;
55537;SDS011;41383;51.418;7.286;2023-04-24T06:50:49;13.45;;;6.03;;
55537;SDS011;41383;51.418;7.286;2023-04-24T06:53:14;10.85;;;5.55;;
55537;SDS011;41383;51.418;7.286;2023-04-24T06:55:39;9.90;;;5.22;;
55537;SDS011;41383;51.418;7.286;2023-04-24T06:58:05;9.18;;;4.93;;
55537;SDS011;41383;51.418;7.286;2023-04-24T07:00:31;8.70;;;4.57;;
55537;SDS011;41383;51.418;7.286;2023-04-24T07:02:56;16.02;;;6.15;;
55537;SDS011;41383;51.418;7.286;2023-04-24T07:05:22;15.02;;;4.75;;
55537;SDS011;41383;51.418;7.286;2023-04-24T07:07:48;8.07;;;4.45;;
55537;SDS011;41383;51.418;7.286;2023-04-24T07:10:14;9.40;;;4.25;;
55537;SDS011;41383;51.418;7.286;2023-04-24T07:12:40;9.65;;;5.13;;
55537;SDS011;41383;51.418;7.286;2023-04-24T07:15:06;8.57;;;4.35;;
55537;SDS011;41383;51.418;7.286;2023-04-24T07:17:33;7.80;;;4.00;;
55537;SDS011;41383;51.418;7.286;2023-04-24T07:20:00;9.43;;;5.20;;
55537;SDS011;41383;51.418;7.286;2023-04-24T07:22:25;8.60;;;4.60;;
55537;SDS011;41383;51.418;7.286;2023-04-24T07:24:50;8.63;;;4.40;;
55537;SDS011;41383;51.418;7.286;2023-04-24T07:27:16;5.82;;;3.42;;
55537;SDS011;41383;51.418;7.286;2023-04-24T07:29:41;5.22;;;2.80;;
55537;SDS011;41383;51.418;7.286;2023-04-24T07:32:07;6.10;;;2.85;;
55537;SDS011;41383;51.418;7.286;2023-04-24T07:34:33;7.22;;;3.08;;
55537;SDS011;41383;51.418;7.286;2023-04-24T07:36:58;5.22;;;2.42;;
55537;SDS011;41383;51.418;7.286;2023-04-24T07:39:23;6.03;;;2.97;;
55537;SDS011;41383;51.418;7.286;2023-04-24T07:41:49;5.28;;;2.50;;
55537;SDS011;41383;51.418;7.286;2023-04-24T07:50:57;5.68;;;2.30;;
55537;SDS011;41383;51.418;7.286;2023-04-24T07:53:23;3.80;;;1.63;;
55537;SDS011;41383;51.418;7.286;2023-04-24T08:12:03;2.80;;;1.30;;
55537;SDS011;41383;51.418;7.286;2023-04-24T08:14:28;1.13;;;0.80;;
55537;SDS011;41383;51.418;7.286;2023-04-24T08:16:54;1.35;;;0.65;;
55537;SDS011;41383;51.418;7.286;2023-04-24T08:19:25;2.47;;;0.80;;
55537;SDS011;41383;51.418;7.286;2023-04-24T08:21:50;0.45;;;0.20;;
55537;SDS011;41383;51.418;7.286;2023-04-24T08:24:15;1.75;;;0.40;;
55537;SDS011;41383;51.418;7.286;2023-04-24T08:26:40;1.80;;;0.67;;
55537;SDS011;41383;51.418;7.286;2023-04-24T08:29:06;1.10;;;0.60;;
55537;SDS011;41383;51.418;7.286;2023-04-24T08:31:31;0.15;;;0.10;;
55537;SDS011;41383;51.418;7.286;2023-04-24T08:33:57;0.28;;;0.17;;
55537;SDS011;41383;51.418;7.286;2023-04-24T08:36:22;0.73;;;0.40;;
55537;SDS011;41383;51.418;7.286;2023-04-24T08:38:48;1.25;;;0.30;;
55537;SDS011;41383;51.418;7.286;2023-04-24T08:41:13;0.77;;;0.47;;
55537;SDS011;41383;51.418;7.286;2023-04-24T08:43:40;1.55;;;0.40;;
55537;SDS011;41383;51.418;7.286;2023-04-24T08:46:06;1.73;;;1.13;;
55537;SDS011;41383;51.418;7.286;2023-04-24T08:48:31;1.00;;;0.40;;
55537;SDS011;41383;51.418;7.286;2023-04-24T08:50:58;0.28;;;0.20;;
55537;SDS011;41383;51.418;7.286;2023-04-24T08:53:24;0.90;;;0.47;;
55537;SDS011;41383;51.418;7.286;2023-04-24T08:55:50;2.63;;;0.50;;
55537;SDS011;41383;51.418;7.286;2023-04-24T08:58:18;5.88;;;0.75;;
55537;SDS011;41383;51.418;7.286;2023-04-24T09:00:44;0.25;;;0.10;;
55537;SDS011;41383;51.418;7.286;2023-04-24T09:03:13;1.65;;;0.70;;
55537;SDS011;41383;51.418;7.286;2023-04-24T09:05:44;1.30;;;0.40;;
55537;SDS011;41383;51.418;7.286;2023-04-24T09:08:12;1.75;;;0.60;;
55537;SDS011;41383;51.418;7.286;2023-04-24T09:10:39;1.90;;;0.70;;
55537;SDS011;41383;51.418;7.286;2023-04-24T09:13:05;1.63;;;0.65;;
55537;SDS011;41383;51.418;7.286;2023-04-24T09:15:31;1.08;;;0.55;;
55537;SDS011;41383;51.418;7.286;2023-04-24T09:17:56;1.58;;;0.80;;
55537;SDS011;41383;51.418;7.286;2023-04-24T09:20:22;3.65;;;1.15;;
55537;SDS011;41383;51.418;7.286;2023-04-24T09:22:47;1.80;;;0.77;;
55537;SDS011;41383;51.418;7.286;2023-04-24T09:25:12;5.35;;;1.67;;
55537;SDS011;41383;51.418;7.286;2023-04-24T09:27:42;3.20;;;0.70;;
55537;SDS011;41383;51.418;7.286;2023-04-24T09:30:09;2.03;;;1.08;;
55537;SDS011;41383;51.418;7.286;2023-04-24T09:32:35;1.70;;;1.35;;
55537;SDS011;41383;51.418;7.286;2023-04-24T09:37:35;2.92;;;1.25;;
55537;SDS011;41383;51.418;7.286;2023-04-24T09:42:37;2.40;;;0.90;;
55537;SDS011;41383;51.418;7.286;2023-04-24T09:45:02;1.80;;;0.70;;
55537;SDS011;41383;51.418;7.286;2023-04-24T09:47:30;2.30;;;1.30;;
55537;SDS011;41383;51.418;7.286;2023-04-24T09:50:08;4.43;;;1.37;;
55537;SDS011;41383;51.418;7.286;2023-04-24T09:52:41;3.08;;;1.38;;
55537;SDS011;41383;51.418;7.286;2023-04-24T09:55:15;5.97;;;2.13;;
55537;SDS011;41383;51.418;7.286;2023-04-24T09:57:47;4.05;;;1.85;;
55537;SDS011;41383;51.418;7.286;2023-04-24T10:00:17;6.20;;;3.15;;
55537;SDS011;41383;51.418;7.286;2023-04-24T10:02:43;10.05;;;3.05;;
55537;SDS011;41383;51.418;7.286;2023-04-24T10:05:09;6.53;;;2.70;;
55537;SDS011;41383;51.418;7.286;2023-04-24T10:07:37;5.68;;;3.00;;
55537;SDS011;41383;51.418;7.286;2023-04-24T10:10:03;6.47;;;3.00;;
55537;SDS011;41383;51.418;7.286;2023-04-24T10:12:28;5.78;;;2.25;;
55537;SDS011;41383;51.418;7.286;2023-04-24T10:14:55;6.22;;;2.33;;
55537;SDS011;41383;51.418;7.286;2023-04-24T10:17:22;3.50;;;1.33;;
55537;SDS011;41383;51.418;7.286;2023-04-24T10:19:48;4.43;;;1.92;;
55537;SDS011;41383;51.418;7.286;2023-04-24T10:22:14;4.35;;;1.85;;
55537;SDS011;41383;51.418;7.286;2023-04-24T10:24:41;5.28;;;2.50;;
55537;SDS011;41383;51.418;7.286;2023-04-24T10:27:08;11.48;;;1.92;;
55537;SDS011;41383;51.418;7.286;2023-04-24T10:29:34;7.03;;;3.17;;
55537;SDS011;41383;51.418;7.286;2023-04-24T10:32:00;5.18;;;2.42;;
55537;SDS011;41383;51.418;7.286;2023-04-24T10:34:26;3.78;;;1.42;;
55537;SDS011;41383;51.418;7.286;2023-04-24T10:36:52;6.10;;;2.17;;
55537;SDS011;41383;51.418;7.286;2023-04-24T10:39:19;4.82;;;2.25;;
55537;SDS011;41383;51.418;7.286;2023-04-24T10:41:46;5.00;;;2.53;;
55537;SDS011;41383;51.418;7.286;2023-04-24T10:44:14;6.70;;;2.60;;
55537;SDS011;41383;51.418;7.286;2023-04-24T10:46:44;8.80;;;3.45;;
55537;SDS011;41383;51.418;7.286;2023-04-24T10:49:10;6.72;;;3.20;;
55537;SDS011;41383;51.418;7.286;2023-04-24T10:51:49;6.80;;;2.45;;
55537;SDS011;41383;51.418;7.286;2023-04-24T10:54:25;8.75;;;4.32;;
55537;SDS011;41383;51.418;7.286;2023-04-24T10:59:45;8.48;;;3.15;;
55537;SDS011;41383;51.418;7.286;2023-04-24T11:02:15;7.05;;;3.05;;
55537;SDS011;41383;51.418;7.286;2023-04-24T11:04:41;7.40;;;3.58;;
55537;SDS011;41383;51.418;7.286;2023-04-24T11:07:08;7.03;;;3.83;;
55537;SDS011;41383;51.418;7.286;2023-04-24T11:09:35;7.13;;;3.67;;
55537;SDS011;41383;51.418;7.286;2023-04-24T11:12:05;7.43;;;3.15;;
55537;SDS011;41383;51.418;7.286;2023-04-24T11:17:35;8.82;;;3.65;;
55537;SDS011;41383;51.418;7.286;2023-04-24T11:20:07;13.02;;;4.47;;
55537;SDS011;41383;51.418;7.286;2023-04-24T11:22:34;8.02;;;4.47;;
55537;SDS011;41383;51.418;7.286;2023-04-24T11:25:01;7.72;;;3.65;;
55537;SDS011;41383;51.418;7.286;2023-04-24T11:27:29;11.43;;;4.13;;
55537;SDS011;41383;51.418;7.286;2023-04-24T11:34:52;7.90;;;2.92;;
55537;SDS011;41383;51.418;7.286;2023-04-24T11:37:19;15.93;;;5.05;;
55537;SDS011;41383;51.418;7.286;2023-04-24T11:39:44;9.63;;;4.25;;
55537;SDS011;41383;51.418;7.286;2023-04-24T11:42:10;8.43;;;4.18;;
55537;SDS011;41383;51.418;7.286;2023-04-24T11:44:36;8.73;;;3.97;;
55537;SDS011;41383;51.418;7.286;2023-04-24T11:47:05;14.80;;;5.60;;
55537;SDS011;41383;51.418;7.286;2023-04-24T11:49:31;14.90;;;5.00;;
55537;SDS011;41383;51.418;7.286;2023-04-24T11:51:57;12.88;;;4.07;;
55537;SDS011;41383;51.418;7.286;2023-04-24T11:54:22;13.18;;;4.90;;
55537;SDS011;41383;51.418;7.286;2023-04-24T11:56:48;15.77;;;5.55;;
55537;SDS011;41383;51.418;7.286;2023-04-24T11:59:14;18.83;;;5.35;;
55537;SDS011;41383;51.418;7.286;2023-04-24T12:01:46;9.27;;;4.78;;
55537;SDS011;41383;51.418;7.286;2023-04-24T12:04:11;12.60;;;4.88;;
55537;SDS011;41383;51.418;7.286;2023-04-24T12:06:37;10.68;;;4.90;;
55537;SDS011;41383;51.418;7.286;2023-04-24T12:09:02;14.55;;;5.00;;
55537;SDS011;41383;51.418;7.286;2023-04-24T12:11:28;11.93;;;4.57;;
55537;SDS011;41383;51.418;7.286;2023-04-24T12:13:54;8.20;;;3.78;;
55537;SDS011;41383;51.418;7.286;2023-04-24T12:16:19;12.02;;;4.05;;
55537;SDS011;41383;51.418;7.286;2023-04-24T12:18:45;15.85;;;3.80;;
55537;SDS011;41383;51.418;7.286;2023-04-24T12:21:23;9.77;;;5.28;;
55537;SDS011;41383;51.418;7.286;2023-04-24T12:23:53;8.88;;;2.72;;
55537;SDS011;41383;51.418;7.286;2023-04-24T12:26:19;10.35;;;3.38;;
55537;SDS011;41383;51.418;7.286;2023-04-24T12:28:48;7.35;;;3.30;;
55537;SDS011;41383;51.418;7.286;2023-04-24T12:31:14;6.80;;;2.38;;
55537;SDS011;41383;51.418;7.286;2023-04-24T12:33:40;9.00;;;3.28;;
55537;SDS011;41383;51.418;7.286;2023-04-24T12:36:06;13.98;;;3.42;;
55537;SDS011;41383;51.418;7.286;2023-04-24T12:38:35;9.13;;;3.85;;
55537;SDS011;41383;51.418;7.286;2023-04-24T12:41:06;13.35;;;3.63;;
55537;SDS011;41383;51.418;7.286;2023-04-24T12:43:36;7.55;;;3.55;;
55537;SDS011;41383;51.418;7.286;2023-04-24T12:46:02;8.82;;;3.58;;
55537;SDS011;41383;51.418;7.286;2023-04-24T12:48:28;8.73;;;3.55;;
55537;SDS011;41383;51.418;7.286;2023-04-24T12:50:54;7.70;;;4.50;;
55537;SDS011;41383;51.418;7.286;2023-04-24T12:53:21;10.20;;;2.63;;
55537;SDS011;41383;51.418;7.286;2023-04-24T12:55:46;5.72;;;2.70;;
55537;SDS011;41383;51.418;7.286;2023-04-24T12:58:17;10.60;;;3.92;;
55537;SDS011;41383;51.418;7.286;2023-04-24T13:00:46;8.18;;;3.40;;
55537;SDS011;41383;51.418;7.286;2023-04-24T13:03:11;7.35;;;2.60;;
55537;SDS011;41383;51.418;7.286;2023-04-24T13:05:37;12.02;;;3.85;;
55537;SDS011;41383;51.418;7.286;2023-04-24T13:08:02;7.13;;;2.95;;
55537;SDS011;41383;51.418;7.286;2023-04-24T13:10:28;5.03;;;2.07;;
55537;SDS011;41383;51.418;7.286;2023-04-24T13:12:53;6.18;;;2.33;;
55537;SDS011;41383;51.418;7.286;2023-04-24T13:15:18;6.32;;;2.40;;
55537;SDS011;41383;51.418;7.286;2023-04-24T13:17:44;5.20;;;2.38;;
55537;SDS011;41383;51.418;7.286;2023-04-24T13:20:09;5.77;;;2.30;;
55537;SDS011;41383;51.418;7.286;2023-04-24T13:22:35;6.25;;;2.10;;
55537;SDS011;41383;51.418;7.286;2023-04-24T13:25:01;9.23;;;2.20;;
55537;SDS011;41383;51.418;7.286;2023-04-24T13:27:27;5.78;;;2.25;;
55537;SDS011;41383;51.418;7.286;2023-04-24T13:29:52;5.53;;;2.73;;
55537;SDS011;41383;51.418;7.286;2023-04-24T13:32:17;6.23;;;2.10;;
55537;SDS011;41383;51.418;7.286;2023-04-24T13:34:42;5.85;;;2.22;;
55537;SDS011;41383;51.418;7.286;2023-04-24T13:37:08;4.38;;;1.58;;
55537;SDS011;41383;51.418;7.286;2023-04-24T13:39:33;6.10;;;2.17;;
55537;SDS011;41383;51.418;7.286;2023-04-24T13:41:58;3.58;;;1.08;;
55537;SDS011;41383;51.418;7.286;2023-04-24T13:44:24;9.25;;;1.88;;
55537;SDS011;41383;51.418;7.286;2023-04-24T13:46:50;5.90;;;1.77;;
55537;SDS011;41383;51.418;7.286;2023-04-24T13:49:19;5.93;;;1.63;;
55537;SDS011;41383;51.418;7.286;2023-04-24T13:51:45;7.85;;;2.67;;
55537;SDS011;41383;51.418;7.286;2023-04-24T13:54:10;5.10;;;2.10;;
55537;SDS011;41383;51.418;7.286;2023-04-24T13:56:36;9.50;;;2.60;;
55537;SDS011;41383;51.418;7.286;2023-04-24T13:59:01;4.60;;;1.90;;
55537;SDS011;41383;51.418;7.286;2023-04-24T14:01:27;3.63;;;1.20;;
55537;SDS011;41383;51.418;7.286;2023-04-24T14:03:52;3.33;;;1.20;;
55537;SDS011;41383;51.418;7.286;2023-04-24T14:06:18;22.65;;;1.92;;
55537;SDS011;41383;51.418;7.286;2023-04-24T14:08:44;4.82;;;1.52;;
55537;SDS011;41383;51.418;7.286;2023-04-24T14:11:10;3.03;;;1.52;;
55537;SDS011;41383;51.418;7.286;2023-04-24T14:13:36;5.47;;;1.80;;
55537;SDS011;41383;51.418;7.286;2023-04-24T14:16:02;5.10;;;1.67;;
55537;SDS011;41383;51.418;7.286;2023-04-24T14:18:28;3.72;;;1.50;;
55537;SDS011;41383;51.418;7.286;2023-04-24T14:20:53;12.80;;;3.22;;
55537;SDS011;41383;51.418;7.286;2023-04-24T14:23:19;2.65;;;1.00;;
55537;SDS011;41383;51.418;7.286;2023-04-24T14:25:44;6.93;;;1.15;;
55537;SDS011;41383;51.418;7.286;2023-04-24T14:28:10;3.28;;;1.80;;
55537;SDS011;41383;51.418;7.286;2023-04-24T14:30:36;4.88;;;1.67;;
55537;SDS011;41383;51.418;7.286;2023-04-24T14:33:02;3.30;;;1.70;;
55537;SDS011;41383;51.418;7.286;2023-04-24T14:35:28;3.90;;;1.67;;
55537;SDS011;41383;51.418;7.286;2023-04-24T14:37:56;6.57;;;1.95;;
55537;SDS011;41383;51.418;7.286;2023-04-24T14:40:21;5.53;;;2.43;;
55537;SDS011;41383;51.418;7.286;2023-04-24T14:42:46;6.20;;;2.22;;
55537;SDS011;41383;51.418;7.286;2023-04-24T14:45:12;4.53;;;2.07;;
55537;SDS011;41383;51.418;7.286;2023-04-24T14:47:37;4.88;;;2.17;;
55537;SDS011;41383;51.418;7.286;2023-04-24T14:50:02;7.55;;;2.35;;
55537;SDS011;41383;51.418;7.286;2023-04-24T14:52:28;4.03;;;1.50;;
55537;SDS011;41383;51.418;7.286;2023-04-24T14:54:53;5.80;;;1.83;;
55537;SDS011;41383;51.418;7.286;2023-04-24T14:57:19;3.55;;;1.65;;
55537;SDS011;41383;51.418;7.286;2023-04-24T14:59:44;3.75;;;1.30;;
55537;SDS011;41383;51.418;7.286;2023-04-24T15:02:10;3.73;;;1.93;;
55537;SDS011;41383;51.418;7.286;2023-04-24T15:04:35;3.13;;;1.15;;
55537;SDS011;41383;51.418;7.286;2023-04-24T15:07:01;6.65;;;1.70;;
55537;SDS011;41383;51.418;7.286;2023-04-24T15:09:26;5.10;;;2.28;;
55537;SDS011;41383;51.418;7.286;2023-04-24T15:11:52;3.75;;;1.40;;
55537;SDS011;41383;51.418;7.286;2023-04-24T15:14:18;3.83;;;1.23;;